Time;durP1;ratioP1;P1;durP2;ratioP2;P2;SDS_P1;SDS_P2;PMS_P1;PMS_P2;Temp;Humidity;BMP_temperature;BMP_pressure;BME280_temperature;BME280_humidity;BME280_pressure;Samples;Min_cycle;Max_cycle;Signal;HPM_P1;HPM_P2
2020/12/10 00:01:11;;;;;;;12.50;7.90;;;;;;;2.12;100.00;95477.66;5077983;28;20285;-69
2020/12/10 00:03:37;;;;;;;11.73;6.80;;;;;;;2.04;100.00;95482.75;5079083;28;20210;-69
2020/12/10 00:06:04;;;;;;;11.20;7.20;;;;;;;2.18;100.00;95490.06;5078563;28;20199;-69
2020/12/10 00:08:30;;;;;;;12.47;7.20;;;;;;;2.15;100.00;95479.94;5079103;28;20204;-70
2020/12/10 00:10:56;;;;;;;13.10;7.17;;;;;;;2.19;100.00;95478.69;5079424;28;20295;-69
2020/12/10 00:13:22;;;;;;;13.87;7.20;;;;;;;2.08;100.00;95477.09;5078900;28;20200;-69
2020/12/10 00:15:48;;;;;;;16.20;7.80;;;;;;;1.87;100.00;95476.53;5078091;28;21143;-70
2020/12/10 00:18:14;;;;;;;13.07;7.40;;;;;;;1.96;100.00;95475.69;5078922;28;20283;-70
2020/12/10 00:20:40;;;;;;;12.80;7.53;;;;;;;1.99;100.00;95474.56;5079119;28;21202;-69
2020/12/10 00:23:07;;;;;;;12.13;7.37;;;;;;;2.05;100.00;95469.63;5079531;28;20213;-70
2020/12/10 00:25:33;;;;;;;13.00;7.63;;;;;;;2.05;100.00;95466.19;5077679;28;20709;-70
2020/12/10 00:27:59;;;;;;;15.73;8.53;;;;;;;1.96;100.00;95473.06;5078362;28;20259;-70
2020/12/10 00:30:25;;;;;;;13.23;7.50;;;;;;;1.98;100.00;95468.53;5079786;28;20868;-70
2020/12/10 00:32:51;;;;;;;13.13;7.60;;;;;;;1.99;100.00;95464.19;5078727;28;20238;-70
2020/12/10 00:35:17;;;;;;;14.93;8.13;;;;;;;1.98;100.00;95455.56;5078027;28;20973;-70
2020/12/10 00:37:43;;;;;;;14.53;8.20;;;;;;;2.04;100.00;95462.78;5078254;28;20192;-70
2020/12/10 00:40:10;;;;;;;13.17;7.93;;;;;;;2.08;100.00;95461.53;5079005;28;21158;-70
2020/12/10 00:42:36;;;;;;;15.53;8.00;;;;;;;2.17;100.00;95463.25;5078596;28;20596;-70
2020/12/10 00:45:03;;;;;;;12.43;7.27;;;;;;;2.19;100.00;95465.69;5077393;28;20200;-70
2020/12/10 00:47:29;;;;;;;12.97;7.70;;;;;;;2.24;100.00;95463.47;5078631;28;20219;-70
2020/12/10 00:49:55;;;;;;;15.87;7.87;;;;;;;2.20;100.00;95460.38;5078088;28;20306;-70
2020/12/10 00:52:24;;;;;;;14.10;7.90;;;;;;;2.15;100.00;95461.75;5078101;28;20225;-70
2020/12/10 00:54:51;;;;;;;14.97;8.07;;;;;;;2.13;100.00;95458.50;5078054;28;20207;-70
2020/12/10 00:57:17;;;;;;;12.17;7.17;;;;;;;2.17;100.00;95465.03;5077525;28;20207;-70
2020/12/10 00:59:43;;;;;;;14.27;8.00;;;;;;;2.12;100.00;95462.06;5077755;28;20231;-70
2020/12/10 01:02:10;;;;;;;14.10;7.40;;;;;;;1.93;100.00;95455.16;5078175;28;20765;-70
2020/12/10 01:04:36;;;;;;;13.97;7.33;;;;;;;1.90;100.00;95447.66;5078174;28;20207;-70
2020/12/10 01:07:03;;;;;;;14.73;7.50;;;;;;;1.95;100.00;95448.06;5076846;28;20694;-70
2020/12/10 01:09:29;;;;;;;16.00;8.00;;;;;;;1.91;100.00;95451.09;5077931;28;20227;-70
2020/12/10 01:11:55;;;;;;;17.60;7.53;;;;;;;2.02;100.00;95443.91;5077784;28;20207;-70
2020/12/10 01:14:22;;;;;;;13.50;7.57;;;;;;;2.09;100.00;95436.38;5077903;28;20204;-70
2020/12/10 01:16:48;;;;;;;13.20;7.40;;;;;;;2.05;100.00;95442.81;5077077;28;20215;-70
2020/12/10 01:19:15;;;;;;;16.00;8.30;;;;;;;2.09;100.00;95450.19;5077701;28;20234;-70
2020/12/10 01:21:41;;;;;;;13.17;7.90;;;;;;;2.10;100.00;95445.78;5077582;28;20757;-70
2020/12/10 01:24:07;;;;;;;13.17;7.67;;;;;;;2.02;100.00;95449.09;5077363;28;20195;-70
2020/12/10 01:26:33;;;;;;;16.40;8.23;;;;;;;1.98;100.00;95441.75;5076832;28;20711;-70
2020/12/10 01:29:00;;;;;;;14.63;8.20;;;;;;;2.03;100.00;95436.94;5077338;28;20277;-70
2020/12/10 01:31:27;;;;;;;12.43;7.50;;;;;;;1.95;100.00;95434.25;5077484;28;20199;-70
2020/12/10 01:33:53;;;;;;;12.77;7.43;;;;;;;2.01;100.00;95431.91;5078165;28;20204;-69
2020/12/10 01:36:20;;;;;;;13.03;7.70;;;;;;;2.06;100.00;95428.84;5076569;28;21154;-69
2020/12/10 01:38:46;;;;;;;15.07;7.97;;;;;;;1.95;100.00;95429.06;5076780;28;20220;-69
2020/12/10 01:41:12;;;;;;;13.47;7.87;;;;;;;1.91;100.00;95430.31;5077314;28;20203;-69
2020/12/10 01:43:38;;;;;;;15.03;8.07;;;;;;;1.90;100.00;95423.50;5077958;28;20277;-69
2020/12/10 01:46:04;;;;;;;12.87;7.10;;;;;;;1.84;100.00;95416.25;5076410;28;20224;-70
2020/12/10 01:48:31;;;;;;;13.43;7.63;;;;;;;1.97;100.00;95424.53;5077174;28;20242;-70
2020/12/10 01:50:57;;;;;;;14.83;7.87;;;;;;;2.01;100.00;95410.28;5077398;28;20200;-69
2020/12/10 01:53:23;;;;;;;15.10;8.67;;;;;;;1.89;100.00;95411.44;5077328;28;20230;-70
2020/12/10 01:55:49;;;;;;;15.57;7.63;;;;;;;1.81;100.00;95404.38;5076477;28;20921;-70
2020/12/10 01:58:15;;;;;;;17.03;8.10;;;;;;;1.99;100.00;95407.03;5077234;28;20208;-70
2020/12/10 02:00:41;;;;;;;15.83;8.27;;;;;;;1.99;100.00;95402.63;5077370;28;20220;-70
2020/12/10 02:03:07;;;;;;;14.27;7.77;;;;;;;1.97;100.00;95416.72;5076872;28;20959;-70
2020/12/10 02:05:40;;;;;;;13.17;7.30;;;;;;;1.99;100.00;95415.63;5076140;28;20207;-69
2020/12/10 02:08:06;;;;;;;16.23;8.00;;;;;;;1.95;100.00;95409.09;5076870;28;20246;-70
2020/12/10 02:10:32;;;;;;;14.43;7.87;;;;;;;1.98;100.00;95395.81;5076805;28;21073;-70
2020/12/10 02:12:59;;;;;;;14.40;7.77;;;;;;;1.93;100.00;95402.41;5077195;28;20211;-70
2020/12/10 02:15:25;;;;;;;14.33;8.00;;;;;;;1.82;100.00;95389.63;5076205;28;20300;-70
2020/12/10 02:17:54;;;;;;;15.73;7.97;;;;;;;1.84;100.00;95382.50;5076190;28;20987;-70
2020/12/10 02:20:20;;;;;;;13.20;7.47;;;;;;;1.65;100.00;95371.41;5076747;28;20230;-70
2020/12/10 02:22:51;;;;;;;13.20;7.57;;;;;;;1.82;100.00;95371.47;5077092;28;20214;-70
2020/12/10 02:25:17;;;;;;;13.03;7.60;;;;;;;1.82;100.00;95364.47;5075410;28;20196;-69
2020/12/10 02:27:43;;;;;;;13.77;7.33;;;;;;;1.80;100.00;95351.78;5076481;28;20231;-69
2020/12/10 02:30:09;;;;;;;15.60;8.67;;;;;;;1.72;100.00;95354.28;5076444;28;20223;-70
2020/12/10 02:32:35;;;;;;;18.87;8.27;;;;;;;1.86;100.00;95350.22;5076816;28;20203;-70
2020/12/10 02:35:01;;;;;;;19.03;9.53;;;;;;;1.92;100.00;95348.81;5075650;28;20312;-70
2020/12/10 02:37:27;;;;;;;18.17;9.13;;;;;;;1.93;100.00;95355.66;5076639;28;20223;-70
2020/12/10 02:39:54;;;;;;;17.97;9.00;;;;;;;1.91;100.00;95344.59;5076609;28;20234;-70
2020/12/10 02:42:22;;;;;;;18.47;8.47;;;;;;;2.00;100.00;95341.13;5076722;28;20222;-70
2020/12/10 02:44:48;;;;;;;19.13;9.53;;;;;;;1.98;100.00;95341.25;5076364;28;20222;-70
2020/12/10 02:47:14;;;;;;;19.37;9.20;;;;;;;1.92;100.00;95343.63;5075738;28;20253;-70
2020/12/10 02:49:40;;;;;;;15.70;8.80;;;;;;;1.76;100.00;95345.22;5076711;28;21135;-70
2020/12/10 02:52:06;;;;;;;20.33;10.60;;;;;;;1.71;100.00;95335.28;5076848;28;20284;-70
2020/12/10 02:54:32;;;;;;;18.60;10.30;;;;;;;1.76;100.00;95338.28;5076096;28;20191;-70
2020/12/10 02:57:01;;;;;;;21.13;9.90;;;;;;;1.91;100.00;95340.22;5075915;28;20200;-70
2020/12/10 02:59:27;;;;;;;20.10;10.90;;;;;;;1.98;100.00;95337.84;5077191;28;20961;-70
2020/12/10 03:01:53;;;;;;;20.10;10.13;;;;;;;1.91;100.00;95327.22;5076337;28;20212;-70
2020/12/10 03:04:19;;;;;;;20.20;10.13;;;;;;;2.01;100.00;95327.16;5076150;28;20289;-70
2020/12/10 03:06:45;;;;;;;21.33;10.77;;;;;;;1.92;100.00;95326.28;5075835;28;20223;-70
2020/12/10 03:09:11;;;;;;;20.40;10.70;;;;;;;1.94;100.00;95329.53;5076092;28;20306;-70
2020/12/10 03:11:37;;;;;;;27.20;12.60;;;;;;;1.65;100.00;95320.28;5076370;28;20200;-70
2020/12/10 03:14:04;;;;;;;30.60;14.30;;;;;;;1.58;100.00;95319.25;5076507;28;20257;-70
2020/12/10 03:16:30;;;;;;;30.37;14.60;;;;;;;1.81;100.00;95325.66;5075595;28;20200;-70
2020/12/10 03:18:56;;;;;;;32.63;14.93;;;;;;;1.87;100.00;95317.28;5076123;28;20650;-70
2020/12/10 03:21:22;;;;;;;33.23;14.77;;;;;;;1.86;100.00;95318.25;5076064;28;20200;-70
2020/12/10 03:23:48;;;;;;;32.27;15.13;;;;;;;1.87;100.00;95317.28;5076473;28;20264;-70
2020/12/10 03:26:14;;;;;;;34.13;14.37;;;;;;;1.87;100.00;95314.69;5075324;28;20200;-70
2020/12/10 03:28:40;;;;;;;28.47;14.27;;;;;;;1.98;100.00;95309.28;5076225;28;20223;-70
2020/12/10 03:31:07;;;;;;;31.97;14.37;;;;;;;2.04;100.00;95299.09;5076387;28;20230;-70
2020/12/10 03:33:33;;;;;;;24.60;12.83;;;;;;;2.11;100.00;95296.72;5075784;28;20199;-70
2020/12/10 03:35:59;;;;;;;25.70;12.73;;;;;;;2.13;100.00;95295.63;5075963;28;20203;-70
2020/12/10 03:38:25;;;;;;;27.80;13.03;;;;;;;2.05;100.00;95292.13;5080097;28;20694;-70
2020/12/10 03:40:51;;;;;;;26.60;13.07;;;;;;;2.11;100.00;95291.53;5079675;28;20208;-70
2020/12/10 03:43:16;;;;;;;28.10;12.97;;;;;;;2.18;100.00;95292.59;5079512;28;20283;-70
2020/12/10 03:45:42;;;;;;;26.50;12.80;;;;;;;2.03;100.00;95286.28;5077674;28;20253;-70
2020/12/10 03:48:09;;;;;;;27.03;13.07;;;;;;;1.98;100.00;95281.50;5079797;28;20231;-70
2020/12/10 03:50:35;;;;;;;25.80;12.93;;;;;;;1.91;100.00;95275.28;5079203;28;20230;-70
2020/12/10 03:53:01;;;;;;;27.70;12.77;;;;;;;1.73;100.00;95278.81;5079837;28;20203;-70
2020/12/10 03:55:27;;;;;;;29.50;13.70;;;;;;;1.72;100.00;95285.00;5078512;28;20210;-70
2020/12/10 03:57:53;;;;;;;27.97;13.23;;;;;;;1.80;100.00;95292.88;5079295;28;20211;-70
2020/12/10 04:00:20;;;;;;;27.57;13.33;;;;;;;1.80;100.00;95283.28;5079479;28;20327;-70
2020/12/10 04:02:47;;;;;;;26.13;12.63;;;;;;;1.91;100.00;95283.06;5079065;28;20200;-68
2020/12/10 04:05:13;;;;;;;26.60;13.23;;;;;;;1.95;100.00;95281.00;5078433;28;20204;-70
2020/12/10 04:07:39;;;;;;;31.87;15.10;;;;;;;1.94;100.00;95280.19;5079090;28;20216;-70
2020/12/10 04:10:05;;;;;;;31.30;14.20;;;;;;;2.06;100.00;95272.97;5079533;28;20306;-70
2020/12/10 04:12:31;;;;;;;29.30;14.33;;;;;;;1.93;100.00;95277.72;5079031;28;20204;-70
2020/12/10 04:14:57;;;;;;;27.87;13.63;;;;;;;1.79;100.00;95280.84;5078457;28;20196;-70
2020/12/10 04:17:23;;;;;;;27.80;13.93;;;;;;;1.76;100.00;95281.16;5079183;28;20211;-70
2020/12/10 04:19:49;;;;;;;31.93;14.70;;;;;;;1.85;100.00;95275.88;5079013;28;20710;-70
2020/12/10 04:22:16;;;;;;;29.60;14.10;;;;;;;1.94;100.00;95268.97;5078714;28;20204;-70
2020/12/10 04:24:42;;;;;;;32.97;14.93;;;;;;;1.91;100.00;95270.09;5079099;28;20576;-70
2020/12/10 04:27:08;;;;;;;32.70;15.53;;;;;;;1.93;100.00;95272.53;5077894;28;20227;-70
2020/12/10 04:29:34;;;;;;;36.37;16.07;;;;;;;1.98;100.00;95270.31;5078412;28;20228;-70
2020/12/10 04:32:00;;;;;;;35.13;16.50;;;;;;;1.96;100.00;95262.69;5078978;28;20208;-70
2020/12/10 04:34:26;;;;;;;31.57;14.63;;;;;;;1.99;100.00;95266.75;5078518;28;20208;-70
2020/12/10 04:36:52;;;;;;;34.20;15.47;;;;;;;2.03;100.00;95252.50;5077827;28;20211;-70
2020/12/10 04:39:19;;;;;;;36.97;16.97;;;;;;;2.01;100.00;95246.63;5078278;28;20230;-70
2020/12/10 04:41:47;;;;;;;37.43;16.27;;;;;;;1.94;100.00;95253.41;5078192;28;20208;-70
2020/12/10 04:44:13;;;;;;;37.47;16.10;;;;;;;1.98;100.00;95244.34;5077752;28;20207;-70
2020/12/10 04:46:40;;;;;;;33.33;15.00;;;;;;;1.96;100.00;95236.69;5076872;28;20196;-70
2020/12/10 04:49:06;;;;;;;34.23;15.10;;;;;;;1.86;100.00;95235.16;5078412;28;20220;-70
2020/12/10 04:51:34;;;;;;;33.53;15.10;;;;;;;1.85;100.00;95228.31;5078216;28;20738;-70
2020/12/10 04:54:01;;;;;;;33.27;14.67;;;;;;;1.95;100.00;95234.25;5078023;28;20222;-70
2020/12/10 04:56:28;;;;;;;32.70;13.90;;;;;;;2.00;100.00;95232.03;5077637;28;20207;-70
2020/12/10 04:58:54;;;;;;;33.47;15.23;;;;;;;1.93;100.00;95234.38;5078220;28;20231;-70
2020/12/10 05:01:21;;;;;;;32.93;15.47;;;;;;;1.95;100.00;95237.66;5077902;28;20214;-70
2020/12/10 05:03:47;;;;;;;35.77;14.20;;;;;;;1.83;100.00;95236.25;5078318;28;20204;-70
2020/12/10 05:06:15;;;;;;;33.83;15.27;;;;;;;1.95;100.00;95236.84;5077542;28;20200;-70
2020/12/10 05:08:42;;;;;;;33.73;14.37;;;;;;;1.85;100.00;95242.09;5077379;28;20227;-70
2020/12/10 05:11:08;;;;;;;35.10;15.47;;;;;;;1.85;100.00;95247.31;5077903;28;20200;-69
2020/12/10 05:13:36;;;;;;;40.67;16.20;;;;;;;1.78;100.00;95248.03;5078486;28;20566;-70
2020/12/10 05:16:02;;;;;;;37.37;15.17;;;;;;;1.80;100.00;95251.31;5076694;28;20831;-69
2020/12/10 05:18:29;;;;;;;40.17;16.43;;;;;;;1.60;100.00;95252.41;5077575;28;21302;-69
2020/12/10 05:20:57;;;;;;;37.60;15.33;;;;;;;1.73;100.00;95250.25;5078558;28;20232;-69
2020/12/10 05:23:31;;;;;;;42.73;16.07;;;;;;;1.63;100.00;95256.50;5077811;28;20195;-69
2020/12/10 05:25:58;;;;;;;35.87;15.53;;;;;;;1.56;100.00;95248.47;5076742;28;20210;-70
2020/12/10 05:28:25;;;;;;;38.37;15.93;;;;;;;1.50;100.00;95256.88;5077725;28;20273;-70
2020/12/10 05:31:03;;;;;;;46.03;17.47;;;;;;;1.58;100.00;95246.56;5077791;28;20200;-70
2020/12/10 05:33:30;;;;;;;39.27;16.50;;;;;;;1.73;100.00;95245.06;5077078;28;20572;-69
2020/12/10 05:36:10;;;;;;;35.53;15.47;;;;;;;1.73;100.00;95239.88;5076880;28;20225;-69
2020/12/10 05:38:55;;;;;;;33.87;14.83;;;;;;;1.61;100.00;95241.06;5077509;28;20192;-69
2020/12/10 05:41:22;;;;;;;36.93;16.53;;;;;;;1.41;100.00;95249.13;5076888;28;20746;-70
2020/12/10 05:43:49;;;;;;;35.93;15.87;;;;;;;1.41;100.00;95247.38;5077269;28;20219;-70
2020/12/10 05:46:18;;;;;;;36.13;15.13;;;;;;;1.49;100.00;95246.59;5076695;28;20569;-70
2020/12/10 05:48:45;;;;;;;38.43;15.47;;;;;;;1.52;100.00;95254.94;5076764;28;20230;-70
2020/12/10 05:51:15;;;;;;;41.57;16.83;;;;;;;1.58;100.00;95249.16;5077496;28;20215;-69
2020/12/10 05:53:42;;;;;;;41.37;16.77;;;;;;;1.59;100.00;95244.78;5077568;28;20211;-70
2020/12/10 05:56:10;;;;;;;44.60;17.50;;;;;;;1.73;100.00;95242.47;5076091;28;20580;-70
2020/12/10 05:58:46;;;;;;;43.07;16.77;;;;;;;1.66;100.00;95244.03;5075970;28;20208;-70
2020/12/10 06:01:24;;;;;;;40.37;16.57;;;;;;;1.84;100.00;95237.88;5076988;28;20192;-70
2020/12/10 06:03:50;;;;;;;41.43;17.70;;;;;;;1.88;100.00;95244.44;5077443;28;20218;-70
2020/12/10 06:06:20;;;;;;;45.53;16.50;;;;;;;1.64;100.00;95245.16;5076059;28;20219;-70
2020/12/10 06:08:47;;;;;;;41.17;16.97;;;;;;;1.55;100.00;95249.44;5076722;28;20231;-70
2020/12/10 06:11:18;;;;;;;40.77;16.37;;;;;;;1.48;100.00;95243.22;5076947;28;20231;-70
2020/12/10 06:13:45;;;;;;;40.97;16.97;;;;;;;1.53;100.00;95241.00;5077037;28;20265;-70
2020/12/10 06:16:18;;;;;;;36.23;15.53;;;;;;;1.50;100.00;95240.47;5076048;28;20211;-70
2020/12/10 06:19:00;;;;;;;44.43;16.83;;;;;;;1.55;100.00;95231.25;5077051;28;20207;-70
2020/12/10 06:21:38;;;;;;;37.17;15.93;;;;;;;1.60;100.00;95234.25;5076663;28;20689;-70
2020/12/10 06:24:36;;;;;;;44.23;16.77;;;;;;;1.25;100.00;95239.38;5076453;28;20200;-70
2020/12/10 06:27:27;;;;;;;40.07;16.03;;;;;;;1.46;100.00;95246.91;5076543;28;20196;-70
2020/12/10 06:30:25;;;;;;;46.57;16.90;;;;;;;1.35;100.00;95245.34;5075794;28;20944;-70
2020/12/10 06:32:53;;;;;;;43.27;16.67;;;;;;;1.36;100.00;95239.19;5076674;28;20509;-70
2020/12/10 06:35:35;;;;;;;44.43;17.13;;;;;;;1.29;100.00;95245.91;5076599;28;20212;-70
2020/12/10 06:38:02;;;;;;;43.63;17.03;;;;;;;1.01;100.00;95247.88;5076249;28;20218;-70
2020/12/10 06:40:34;;;;;;;46.03;18.17;;;;;;;1.02;100.00;95246.88;5075947;28;20251;-70
2020/12/10 06:43:01;;;;;;;45.83;18.37;;;;;;;1.00;100.00;95248.81;5076821;28;20218;-70
2020/12/10 06:45:34;;;;;;;44.30;16.77;;;;;;;0.83;100.00;95247.00;5076106;28;20199;-70
2020/12/10 06:48:02;;;;;;;46.17;17.50;;;;;;;0.87;100.00;95253.53;5076323;28;20705;-70
2020/12/10 06:50:30;;;;;;;46.77;17.93;;;;;;;0.85;100.00;95243.31;5076658;28;20223;-70
2020/12/10 06:53:16;;;;;;;50.43;17.53;;;;;;;0.86;100.00;95251.88;5076660;28;20289;-70
2020/12/10 06:56:01;;;;;;;47.23;17.33;;;;;;;0.74;100.00;95243.47;5076342;28;20210;-70
2020/12/10 06:58:46;;;;;;;47.63;17.07;;;;;;;0.72;100.00;95255.75;5076566;28;20260;-70
2020/12/10 07:01:34;;;;;;;43.43;16.07;;;;;;;0.68;100.00;95249.22;5076507;28;20235;-70
2020/12/10 07:04:31;;;;;;;46.00;16.80;;;;;;;0.59;100.00;95246.66;5076811;28;20217;-70
2020/12/10 07:07:18;;;;;;;46.60;16.90;;;;;;;0.51;100.00;95251.75;5075646;28;20245;-70
2020/12/10 07:09:52;;;;;;;41.33;16.40;;;;;;;0.61;100.00;95248.16;5076183;28;20829;-70
2020/12/10 07:12:20;;;;;;;50.23;17.63;;;;;;;0.67;100.00;95249.34;5079980;28;20301;-70
2020/12/10 07:14:46;;;;;;;47.83;17.93;;;;;;;0.59;100.00;95251.84;5080184;28;20206;-70
2020/12/10 07:17:12;;;;;;;42.77;16.10;;;;;;;0.56;100.00;95249.53;5079759;28;20602;-70
2020/12/10 07:19:39;;;;;;;46.93;17.93;;;;;;;0.66;100.00;95250.31;5080007;28;20228;-70
2020/12/10 07:22:05;;;;;;;54.70;18.50;;;;;;;0.67;100.00;95244.16;5080266;28;20206;-70
2020/12/10 07:24:31;;;;;;;49.90;18.47;;;;;;;0.69;100.00;95237.09;5079770;28;20199;-70
2020/12/10 07:26:57;;;;;;;45.27;16.80;;;;;;;0.69;100.00;95240.47;5079301;28;20572;-70
2020/12/10 07:29:23;;;;;;;46.50;17.33;;;;;;;0.77;100.00;95247.56;5079608;28;20218;-70
2020/12/10 07:31:49;;;;;;;47.50;17.63;;;;;;;0.75;100.00;95244.28;5079999;28;20665;-70
2020/12/10 07:34:15;;;;;;;42.43;16.97;;;;;;;0.84;100.00;95248.59;5079733;28;20206;-70
2020/12/10 07:36:49;;;;;;;43.40;16.27;;;;;;;0.77;100.00;95240.56;5078862;28;20210;-71
2020/12/10 07:39:26;;;;;;;42.87;16.73;;;;;;;0.94;100.00;95254.56;5079588;28;20226;-70
2020/12/10 07:41:52;;;;;;;42.87;16.40;;;;;;;0.81;100.00;95248.91;5079499;28;20749;-70
2020/12/10 07:44:24;;;;;;;44.27;16.40;;;;;;;1.05;100.00;95251.81;5079385;28;20215;-71
2020/12/10 07:46:50;;;;;;;41.97;16.70;;;;;;;1.04;100.00;95240.59;5078929;28;20210;-71
2020/12/10 07:49:24;;;;;;;39.80;15.90;;;;;;;1.11;100.00;95238.22;5079301;28;20228;-70
2020/12/10 07:51:50;;;;;;;45.13;17.57;;;;;;;1.03;100.00;95235.56;5080105;28;20212;-70
2020/12/10 07:54:16;;;;;;;47.03;17.53;;;;;;;1.03;100.00;95235.56;5078902;28;21252;-70
2020/12/10 07:56:44;;;;;;;49.40;17.87;;;;;;;1.06;100.00;95230.06;5078885;28;20294;-70
2020/12/10 07:59:14;;;;;;;48.37;17.37;;;;;;;1.14;100.00;95230.19;5079557;28;20228;-70
2020/12/10 08:01:43;;;;;;;48.43;18.30;;;;;;;1.20;100.00;95231.22;5079040;28;20199;-70
2020/12/10 08:04:19;;;;;;;47.47;17.27;;;;;;;1.14;100.00;95225.81;5079493;28;20254;-70
2020/12/10 08:06:46;;;;;;;50.63;17.70;;;;;;;1.11;100.00;95235.63;5078795;28;20233;-70
2020/12/10 08:09:14;;;;;;;45.33;16.67;;;;;;;1.07;100.00;95234.31;5079071;28;20697;-70
2020/12/10 08:11:50;;;;;;;43.57;16.77;;;;;;;1.18;100.00;95236.72;5079187;28;20670;-70
2020/12/10 08:14:24;;;;;;;51.80;17.53;;;;;;;1.21;100.00;95245.84;5079412;28;20211;-70
2020/12/10 08:16:50;;;;;;;47.23;18.77;;;;;;;1.23;100.00;95243.09;5078561;28;20291;-70
2020/12/10 08:19:18;;;;;;;50.50;17.70;;;;;;;1.36;100.00;95236.59;5079135;28;20219;-70
2020/12/10 08:21:46;;;;;;;52.47;17.70;;;;;;;1.39;100.00;95240.69;5078842;28;20207;-71
2020/12/10 08:24:14;;;;;;;44.57;16.83;;;;;;;1.34;100.00;95246.31;5078563;28;20211;-71
2020/12/10 08:26:41;;;;;;;53.10;17.30;;;;;;;1.42;100.00;95237.78;5077787;28;20196;-71
2020/12/10 08:29:07;;;;;;;50.63;17.87;;;;;;;1.36;100.00;95233.19;5078893;28;20700;-71
2020/12/10 08:31:34;;;;;;;52.67;18.87;;;;;;;1.34;100.00;95238.53;5078890;28;20311;-71
2020/12/10 08:34:00;;;;;;;51.87;18.13;;;;;;;1.33;100.00;95242.06;5078252;28;20300;-71
2020/12/10 08:36:31;;;;;;;55.20;19.47;;;;;;;1.27;100.00;95242.66;5077786;28;20671;-71
2020/12/10 08:38:59;;;;;;;56.43;19.20;;;;;;;1.43;100.00;95242.84;5078655;28;20231;-71
2020/12/10 08:41:28;;;;;;;56.77;18.83;;;;;;;1.30;100.00;95250.16;5078261;28;20196;-71
2020/12/10 08:44:00;;;;;;;60.37;19.30;;;;;;;1.46;100.00;95247.72;5078620;28;20207;-71
2020/12/10 08:46:26;;;;;;;51.47;17.43;;;;;;;1.30;100.00;95246.75;5077507;28;20202;-71
2020/12/10 08:48:54;;;;;;;59.80;19.00;;;;;;;1.28;100.00;95253.84;5078049;28;20231;-71
2020/12/10 08:51:20;;;;;;;60.40;19.17;;;;;;;1.35;100.00;95247.94;5078054;28;20275;-71
2020/12/10 08:53:48;;;;;;;55.90;19.30;;;;;;;1.45;100.00;95247.88;5077833;28;20230;-71
2020/12/10 08:56:20;;;;;;;60.60;18.47;;;;;;;1.36;100.00;95244.38;5078180;28;20200;-70
2020/12/10 08:58:47;;;;;;;55.37;19.37;;;;;;;1.38;100.00;95244.25;5078599;28;20211;-70
2020/12/10 09:01:13;;;;;;;59.40;18.93;;;;;;;1.28;100.00;95244.28;5078465;28;20196;-70
2020/12/10 09:03:38;;;;;;;60.27;18.60;;;;;;;1.46;100.00;95237.34;5078730;28;20310;-70
2020/12/10 09:06:05;;;;;;;57.10;18.00;;;;;;;1.54;100.00;95239.19;5078446;28;20208;-70
2020/12/10 09:08:31;;;;;;;56.90;18.03;;;;;;;1.57;100.00;95229.34;5078240;28;20270;-71
2020/12/10 09:10:57;;;;;;;63.40;19.17;;;;;;;1.61;100.00;95230.69;5079382;28;20215;-70
2020/12/10 09:13:23;;;;;;;60.23;18.40;;;;;;;1.65;100.00;95231.22;5078551;28;20200;-70
2020/12/10 09:15:50;;;;;;;69.20;19.93;;;;;;;1.52;100.00;95231.56;5077392;28;20223;-70
2020/12/10 09:18:16;;;;;;;62.30;19.87;;;;;;;1.47;100.00;95236.38;5077929;28;20196;-71
2020/12/10 09:20:42;;;;;;;60.60;18.60;;;;;;;1.45;100.00;95233.13;5077835;28;20215;-71
2020/12/10 09:23:09;;;;;;;58.33;19.30;;;;;;;1.60;100.00;95228.25;5077827;28;20257;-71
2020/12/10 09:25:34;;;;;;;61.90;20.30;;;;;;;1.61;100.00;95233.28;5077785;28;20211;-70
2020/12/10 09:28:00;;;;;;;59.43;18.83;;;;;;;1.68;100.00;95225.72;5078539;28;20231;-70
2020/12/10 09:30:26;;;;;;;54.67;17.93;;;;;;;1.63;100.00;95220.97;5078112;28;20215;-70
2020/12/10 09:32:53;;;;;;;64.77;18.73;;;;;;;1.66;100.00;95217.28;5077180;28;20211;-70
2020/12/10 09:35:19;;;;;;;57.13;18.40;;;;;;;1.64;100.00;95225.19;5077275;28;20210;-70
2020/12/10 09:37:45;;;;;;;59.93;19.33;;;;;;;1.88;100.00;95220.22;5078180;28;20282;-70
2020/12/10 09:40:13;;;;;;;60.93;18.57;;;;;;;1.80;100.00;95224.53;5078173;28;20219;-70
2020/12/10 09:42:40;;;;;;;59.23;18.33;;;;;;;1.63;100.00;95218.38;5077378;28;20211;-70
2020/12/10 09:45:07;;;;;;;60.23;18.80;;;;;;;1.78;100.00;95222.06;5077257;28;20572;-70
2020/12/10 09:47:33;;;;;;;60.40;19.77;;;;;;;1.67;100.00;95224.91;5078451;28;20211;-70
2020/12/10 09:50:01;;;;;;;57.27;18.37;;;;;;;1.87;100.00;95224.59;5077444;28;20219;-70
2020/12/10 09:52:28;;;;;;;49.30;18.63;;;;;;;1.99;100.00;95218.22;5077594;28;20211;-70
2020/12/10 09:55:01;;;;;;;51.07;17.43;;;;;;;1.78;100.00;95211.69;5078127;28;20753;-70
2020/12/10 09:57:30;;;;;;;55.87;18.23;;;;;;;2.01;100.00;95212.84;5077727;28;20227;-70
2020/12/10 09:59:57;;;;;;;58.60;19.17;;;;;;;1.98;100.00;95213.16;5077575;28;20261;-71
2020/12/10 10:02:23;;;;;;;58.27;17.77;;;;;;;2.09;100.00;95213.75;5077896;28;20203;-70
2020/12/10 10:04:50;;;;;;;55.20;17.90;;;;;;;2.04;100.00;95218.56;5077423;28;20209;-70
2020/12/10 10:07:17;;;;;;;58.83;17.63;;;;;;;1.87;100.00;95214.22;5077421;28;20211;-70
2020/12/10 10:09:43;;;;;;;53.13;17.43;;;;;;;1.94;100.00;95211.84;5077792;28;20230;-70
2020/12/10 10:12:10;;;;;;;55.50;17.33;;;;;;;2.06;100.00;95202.84;5077535;28;20207;-70
2020/12/10 10:14:37;;;;;;;66.97;18.77;;;;;;;1.98;100.00;95206.19;5077886;28;20673;-70
2020/12/10 10:17:05;;;;;;;63.47;18.23;;;;;;;1.98;100.00;95211.38;5077089;28;20229;-70
2020/12/10 10:19:31;;;;;;;59.53;18.33;;;;;;;2.02;100.00;95210.09;5077294;28;20919;-70
2020/12/10 10:21:58;;;;;;;58.43;17.00;;;;;;;1.82;100.00;95200.88;5078018;28;20200;-70
2020/12/10 10:24:25;;;;;;;63.97;18.23;;;;;;;1.97;100.00;95204.56;5077678;28;20227;-70
2020/12/10 10:26:51;;;;;;;65.07;19.33;;;;;;;1.96;100.00;95189.09;5077043;28;20257;-70
2020/12/10 10:29:20;;;;;;;66.20;18.23;;;;;;;2.14;100.00;95197.69;5077510;28;20314;-70
2020/12/10 10:31:46;;;;;;;55.70;17.87;;;;;;;2.32;100.00;95190.66;5078120;28;20207;-71
2020/12/10 10:34:12;;;;;;;57.33;18.00;;;;;;;2.51;100.00;95186.91;5078911;28;20223;-71
2020/12/10 10:36:39;;;;;;;63.97;18.90;;;;;;;2.34;100.00;95180.94;5077470;28;20841;-70
2020/12/10 10:39:04;;;;;;;68.07;19.60;;;;;;;2.37;100.00;95186.66;5078559;28;20213;-70
2020/12/10 10:41:31;;;;;;;67.07;19.73;;;;;;;2.27;100.00;95187.72;5077851;28;20405;-70
2020/12/10 10:43:57;;;;;;;63.17;18.97;;;;;;;2.22;100.00;95189.97;5078372;28;20207;-70
2020/12/10 10:46:23;;;;;;;61.30;19.00;;;;;;;2.17;100.00;95187.00;5081110;28;20282;-70
2020/12/10 10:48:49;;;;;;;61.10;18.90;;;;;;;2.22;100.00;95189.97;5081800;28;20712;-70
2020/12/10 10:51:15;;;;;;;64.97;19.37;;;;;;;2.22;100.00;95189.97;5082058;28;20206;-71
2020/12/10 10:53:41;;;;;;;70.47;20.30;;;;;;;2.22;100.00;95189.97;5081747;28;20314;-71
2020/12/10 10:56:07;;;;;;;71.03;19.57;;;;;;;2.27;100.00;95182.53;5079749;28;21185;-71
2020/12/10 10:58:34;;;;;;;64.80;19.20;;;;;;;2.21;100.00;95183.13;5080765;28;20678;-70
2020/12/10 11:01:00;;;;;;;68.73;19.87;;;;;;;1.98;100.00;95176.81;5079475;28;20210;-70
2020/12/10 11:03:26;;;;;;;73.93;19.27;;;;;;;2.09;100.00;95173.97;5080298;28;20286;-71
2020/12/10 11:05:54;;;;;;;66.97;18.77;;;;;;;2.12;100.00;95165.88;5080265;28;20214;-71
2020/12/10 11:08:20;;;;;;;66.20;18.43;;;;;;;2.26;100.00;95162.72;5080585;28;20215;-71
2020/12/10 11:10:46;;;;;;;75.13;19.77;;;;;;;2.13;100.00;95159.72;5080258;28;20274;-71
2020/12/10 11:13:12;;;;;;;73.57;19.90;;;;;;;2.26;100.00;95162.72;5080666;28;20206;-71
2020/12/10 11:15:39;;;;;;;72.90;20.80;;;;;;;2.33;100.00;95148.13;5079204;28;20214;-71
2020/12/10 11:18:05;;;;;;;68.33;20.10;;;;;;;2.55;100.00;95153.63;5080361;28;20203;-71
2020/12/10 11:20:31;;;;;;;67.00;19.83;;;;;;;2.49;100.00;95146.44;5080464;28;20306;-71
2020/12/10 11:22:57;;;;;;;64.27;18.50;;;;;;;2.51;100.00;95152.31;5080835;28;20323;-71